Time;durP1;ratioP1;P1;durP2;ratioP2;P2;SDS_P1;SDS_P2;PMS_P1;PMS_P2;Temp;Humidity;BMP_temperature;BMP_pressure;BME280_temperature;BME280_humidity;BME280_pressure;Samples;Min_cycle;Max_cycle;Signal;HPM_P1;HPM_P2
2024/03/05 05:07:43;;;;;;;0.32;0.32;;;8.60;99.90;;;;;;4840001;27;20238;-60
2024/03/05 05:10:08;;;;;;;0.35;0.35;;;8.60;99.90;;;;;;4862882;29;20203;-59
2024/03/05 05:12:35;;;;;;;0.30;0.30;;;8.60;99.90;;;;;;4862612;29;20635;-60
2024/03/05 05:15:00;;;;;;;0.32;0.32;;;8.60;99.90;;;;;;4845631;29;20650;-59
2024/03/05 05:17:26;;;;;;;0.30;0.30;;;8.70;99.90;;;;;;4862409;29;20243;-60
2024/03/05 05:19:52;;;;;;;0.40;0.40;;;8.70;99.90;;;;;;4862492;29;20259;-60
2024/03/05 05:22:17;;;;;;;2.50;1.47;;;8.60;99.90;;;;;;4862435;29;20202;-60
2024/03/05 05:24:43;;;;;;;0.40;0.40;;;8.70;99.90;;;;;;4862073;29;20538;-59
2024/03/05 05:27:09;;;;;;;0.30;0.30;;;8.70;99.90;;;;;;4864194;29;20215;-61
2024/03/05 05:29:36;;;;;;;0.85;0.85;;;8.70;99.90;;;;;;4845804;29;20238;-60
2024/03/05 05:32:03;;;;;;;0.30;0.30;;;8.70;99.90;;;;;;4862285;29;20176;-60
2024/03/05 05:34:28;;;;;;;0.45;0.45;;;8.70;99.90;;;;;;4862071;29;20191;-59
2024/03/05 05:36:54;;;;;;;0.30;0.30;;;8.70;99.90;;;;;;4861271;29;20568;-60
2024/03/05 05:39:24;;;;;;;0.40;0.40;;;8.70;99.90;;;;;;4862358;29;20199;-61
2024/03/05 05:41:52;;;;;;;0.73;0.73;;;8.70;99.90;;;;;;4862508;29;20643;-59
2024/03/05 05:44:18;;;;;;;0.40;0.40;;;8.70;99.90;;;;;;4862032;29;20173;-60
2024/03/05 05:46:47;;;;;;;0.30;0.30;;;8.70;99.90;;;;;;4862057;29;20730;-60
2024/03/05 05:49:19;;;;;;;1.27;1.27;;;8.70;99.90;;;;;;4862149;29;20435;-59
2024/03/05 05:51:45;;;;;;;0.50;0.50;;;8.70;99.90;;;;;;4861461;29;20543;-59
2024/03/05 05:54:11;;;;;;;1.02;1.02;;;8.70;99.90;;;;;;4861318;29;20648;-61
2024/03/05 05:56:38;;;;;;;0.30;0.30;;;8.60;99.90;;;;;;4861397;29;20295;-60
2024/03/05 05:59:08;;;;;;;0.40;0.40;;;8.60;99.90;;;;;;4861415;29;20658;-61
2024/03/05 06:01:37;;;;;;;0.32;0.32;;;8.60;99.90;;;;;;4861260;29;20267;-60
2024/03/05 06:04:06;;;;;;;0.40;0.40;;;8.60;99.90;;;;;;4861707;29;20180;-60
2024/03/05 06:06:34;;;;;;;0.30;0.30;;;8.60;99.90;;;;;;4861124;29;20274;-60
2024/03/05 06:09:08;;;;;;;0.38;0.38;;;8.60;99.90;;;;;;4861854;29;20180;-60
2024/03/05 06:11:38;;;;;;;0.63;0.63;;;8.60;99.90;;;;;;4861254;29;20194;-59
2024/03/05 06:14:06;;;;;;;0.50;0.50;;;8.60;99.90;;;;;;4860960;29;20257;-61
2024/03/05 06:16:32;;;;;;;0.70;0.70;;;8.60;99.90;;;;;;4844067;29;20212;-60
2024/03/05 06:18:58;;;;;;;0.30;0.30;;;8.60;99.90;;;;;;4861356;29;20547;-60
2024/03/05 06:21:24;;;;;;;0.30;0.30;;;8.60;99.90;;;;;;4861152;29;20231;-59
2024/03/05 06:23:53;;;;;;;0.30;0.30;;;8.60;99.90;;;;;;4861411;29;20184;-60
2024/03/05 06:26:18;;;;;;;0.30;0.30;;;8.60;99.90;;;;;;4860575;29;20201;-60
2024/03/05 06:28:44;;;;;;;0.40;0.40;;;8.60;99.90;;;;;;4861328;29;20654;-60
2024/03/05 06:31:10;;;;;;;0.30;0.30;;;8.70;99.90;;;;;;4861253;29;20756;-60
2024/03/05 06:33:36;;;;;;;0.30;0.30;;;8.70;99.90;;;;;;4860465;29;20180;-60
2024/03/05 06:36:06;;;;;;;0.40;0.40;;;8.70;99.90;;;;;;4843738;29;20552;-60
2024/03/05 06:38:34;;;;;;;2.35;2.15;;;8.70;99.90;;;;;;4860921;29;20544;-60
2024/03/05 06:41:00;;;;;;;0.30;0.30;;;8.70;99.90;;;;;;4859915;29;20181;-60
2024/03/05 06:43:33;;;;;;;1.00;1.00;;;8.70;99.90;;;;;;4861059;29;20210;-61
2024/03/05 06:45:59;;;;;;;0.30;0.30;;;8.80;99.90;;;;;;4860537;29;20652;-60
2024/03/05 06:48:26;;;;;;;0.30;0.30;;;8.70;99.90;;;;;;4860912;29;20188;-62
2024/03/05 06:50:58;;;;;;;0.30;0.30;;;8.80;99.90;;;;;;4860696;29;20184;-62
2024/03/05 06:58:53;;;;;;;0.40;0.40;;;8.80;99.90;;;;;;4860961;29;20685;-62
2024/03/05 07:01:22;;;;;;;0.77;0.77;;;8.90;99.90;;;;;;4860154;29;20184;-60
2024/03/05 07:03:48;;;;;;;0.32;0.32;;;8.90;99.90;;;;;;4860633;29;20438;-61
2024/03/05 07:06:14;;;;;;;0.30;0.30;;;8.90;99.90;;;;;;4859593;29;20196;-59
2024/03/05 07:08:47;;;;;;;0.30;0.30;;;8.90;99.90;;;;;;4860179;29;20196;-59
2024/03/05 07:11:15;;;;;;;0.30;0.30;;;8.90;99.90;;;;;;4860886;29;20192;-61
2024/03/05 07:13:42;;;;;;;0.47;0.47;;;8.90;99.90;;;;;;4861036;29;20264;-61
2024/03/05 07:16:15;;;;;;;0.30;0.30;;;9.00;99.90;;;;;;4860222;29;20620;-59
2024/03/05 07:18:45;;;;;;;0.30;0.30;;;9.00;99.90;;;;;;4860352;29;20192;-59
2024/03/05 07:21:11;;;;;;;0.30;0.30;;;9.00;99.90;;;;;;4860752;29;20591;-61
2024/03/05 07:23:36;;;;;;;0.30;0.20;;;9.00;99.90;;;;;;4860166;29;20180;-59
2024/03/05 07:26:02;;;;;;;0.30;0.30;;;9.00;99.90;;;;;;4859783;29;20198;-60
2024/03/05 07:28:28;;;;;;;0.70;0.70;;;9.00;99.90;;;;;;4860907;29;20674;-60
2024/03/05 07:30:54;;;;;;;0.30;0.30;;;9.10;99.90;;;;;;4860879;29;20204;-63
2024/03/05 07:33:20;;;;;;;0.45;0.45;;;9.10;99.90;;;;;;4860359;29;20212;-60
2024/03/05 07:35:46;;;;;;;0.40;0.40;;;9.00;99.90;;;;;;4843378;29;20201;-62
2024/03/05 07:38:14;;;;;;;0.30;0.30;;;9.10;99.90;;;;;;4860516;29;20207;-60
2024/03/05 07:40:40;;;;;;;0.40;0.40;;;9.10;99.90;;;;;;4860287;29;20431;-58
2024/03/05 07:43:08;;;;;;;0.35;0.35;;;9.10;99.90;;;;;;4860376;29;20172;-61
2024/03/05 07:45:34;;;;;;;0.30;0.30;;;9.20;99.90;;;;;;4843328;29;20574;-61
2024/03/05 07:48:00;;;;;;;0.30;0.30;;;9.20;99.90;;;;;;4860312;29;20177;-61
2024/03/05 07:50:27;;;;;;;0.40;0.40;;;9.30;99.90;;;;;;4860235;29;20182;-61
2024/03/05 07:52:59;;;;;;;1.90;0.88;;;9.20;99.90;;;;;;4862729;29;20195;-61
2024/03/05 07:55:26;;;;;;;0.40;0.40;;;9.20;99.90;;;;;;4863266;29;20204;-61
2024/03/05 07:57:53;;;;;;;0.35;0.35;;;9.10;99.90;;;;;;4863796;29;20233;-61
2024/03/05 08:00:20;;;;;;;0.32;0.32;;;9.20;99.90;;;;;;4864019;29;20180;-61
2024/03/05 08:02:47;;;;;;;0.30;0.28;;;9.20;99.90;;;;;;4863616;29;20181;-62
2024/03/05 08:05:17;;;;;;;0.30;0.30;;;9.20;99.90;;;;;;4863104;29;20674;-62
2024/03/05 08:07:54;;;;;;;0.32;0.32;;;9.10;99.90;;;;;;4863206;29;20257;-59
2024/03/05 08:10:20;;;;;;;0.40;0.40;;;9.10;99.90;;;;;;4863791;29;20185;-61
2024/03/05 08:12:48;;;;;;;0.60;0.60;;;9.10;99.90;;;;;;4863260;29;20705;-61
2024/03/05 08:15:17;;;;;;;0.35;0.35;;;9.10;99.90;;;;;;4862992;29;20492;-61
2024/03/05 08:17:47;;;;;;;0.50;0.50;;;9.10;99.90;;;;;;4863126;29;20231;-60
2024/03/05 08:20:18;;;;;;;0.30;0.30;;;9.00;99.90;;;;;;4863629;29;20536;-61
2024/03/05 08:22:46;;;;;;;0.40;0.40;;;9.00;99.90;;;;;;4863208;29;20168;-60
2024/03/05 08:25:13;;;;;;;0.98;0.95;;;9.00;99.90;;;;;;4862749;29;20192;-60
2024/03/05 08:27:42;;;;;;;0.30;0.30;;;9.00;99.90;;;;;;4863186;29;20176;-59
2024/03/05 08:30:21;;;;;;;0.73;0.73;;;9.00;99.90;;;;;;4846251;29;20188;-60
2024/03/05 08:32:47;;;;;;;0.40;0.40;;;8.90;99.90;;;;;;4863352;29;20538;-61
2024/03/05 08:35:13;;;;;;;0.30;0.30;;;8.90;99.90;;;;;;4862421;29;20184;-59
2024/03/05 08:37:47;;;;;;;0.40;0.40;;;8.80;99.90;;;;;;4862854;29;20456;-61
2024/03/05 08:40:15;;;;;;;0.30;0.30;;;8.80;99.90;;;;;;4863045;29;20180;-61
2024/03/05 08:42:45;;;;;;;0.30;0.30;;;8.70;99.90;;;;;;4862664;29;20220;-60
2024/03/05 08:45:20;;;;;;;0.30;0.30;;;8.70;99.90;;;;;;4862591;29;20180;-61
2024/03/05 08:47:49;;;;;;;0.30;0.30;;;8.70;99.90;;;;;;4863081;29;20172;-61
2024/03/05 08:50:15;;;;;;;0.47;0.47;;;8.70;99.90;;;;;;4862810;29;20614;-61
2024/03/05 08:52:41;;;;;;;0.30;0.20;;;8.70;99.90;;;;;;4862761;29;20571;-60
2024/03/05 08:55:10;;;;;;;0.38;0.38;;;8.60;99.90;;;;;;4862678;29;20538;-60
2024/03/05 08:57:42;;;;;;;0.30;0.30;;;8.60;99.90;;;;;;4862389;29;20203;-60
2024/03/05 09:00:14;;;;;;;0.30;0.30;;;8.50;99.90;;;;;;4861409;29;20183;-60
2024/03/05 09:02:41;;;;;;;0.30;0.30;;;8.40;99.90;;;;;;4862670;29;20171;-61
2024/03/05 09:05:09;;;;;;;0.40;0.40;;;8.30;99.90;;;;;;4861411;29;20275;-60
2024/03/05 09:07:36;;;;;;;0.30;0.30;;;8.30;99.90;;;;;;4862292;29;20200;-61
2024/03/05 09:10:03;;;;;;;0.30;0.30;;;8.30;99.90;;;;;;4862348;29;20263;-62
2024/03/05 09:12:29;;;;;;;0.40;0.40;;;8.30;99.90;;;;;;4862732;29;20184;-60
2024/03/05 09:14:55;;;;;;;0.40;0.40;;;8.20;99.90;;;;;;4862065;29;20651;-61
2024/03/05 09:17:22;;;;;;;0.30;0.30;;;8.20;99.90;;;;;;4862603;29;20208;-59
2024/03/05 09:19:48;;;;;;;0.30;0.30;;;8.20;99.90;;;;;;4862375;29;20180;-60
2024/03/05 09:22:16;;;;;;;0.40;0.40;;;8.20;99.90;;;;;;4862416;29;20218;-60
2024/03/05 09:24:45;;;;;;;0.40;0.40;;;8.20;99.90;;;;;;4861751;29;20188;-61
2024/03/05 09:27:12;;;;;;;0.30;0.30;;;8.10;99.90;;;;;;4862423;29;20196;-61
2024/03/05 09:29:42;;;;;;;0.30;0.30;;;8.20;99.90;;;;;;4862268;29;20184;-59
2024/03/05 09:32:08;;;;;;;0.32;0.32;;;8.20;99.90;;;;;;4862341;29;20214;-62
2024/03/05 09:34:38;;;;;;;0.38;0.38;;;8.20;99.90;;;;;;4861956;29;20188;-60
2024/03/05 09:37:07;;;;;;;0.30;0.30;;;8.20;99.90;;;;;;4862313;29;20295;-60
2024/03/05 09:39:34;;;;;;;1.45;0.60;;;8.20;99.90;;;;;;4862060;29;20236;-59
2024/03/05 09:42:00;;;;;;;0.30;0.30;;;8.20;99.90;;;;;;4845281;29;20182;-59
2024/03/05 09:44:28;;;;;;;0.30;0.30;;;8.20;99.90;;;;;;4861727;29;20535;-60
2024/03/05 09:46:59;;;;;;;0.35;0.35;;;8.20;99.90;;;;;;4861917;29;20725;-59
2024/03/05 09:49:24;;;;;;;0.30;0.30;;;8.30;99.90;;;;;;4862225;29;20180;-60
2024/03/05 09:51:51;;;;;;;0.30;0.30;;;8.30;99.90;;;;;;4861828;29;20751;-59
2024/03/05 09:54:17;;;;;;;0.30;0.30;;;8.30;99.90;;;;;;4861198;29;20172;-60
2024/03/05 09:56:45;;;;;;;0.30;0.27;;;8.40;99.90;;;;;;4861375;29;20208;-61
2024/03/05 09:59:12;;;;;;;0.30;0.30;;;8.40;99.90;;;;;;4861689;29;20184;-61
2024/03/05 10:01:44;;;;;;;0.30;0.30;;;8.40;99.90;;;;;;4861831;29;20189;-59
2024/03/05 10:04:13;;;;;;;0.30;0.30;;;8.40;99.90;;;;;;4861836;29;20177;-59
2024/03/05 10:06:38;;;;;;;1.48;0.80;;;8.40;99.90;;;;;;4861087;29;20222;-58
2024/03/05 10:09:08;;;;;;;0.40;0.40;;;8.40;99.90;;;;;;4861480;29;20196;-61
2024/03/05 10:11:34;;;;;;;0.30;0.30;;;8.40;99.90;;;;;;4861622;29;20184;-60
2024/03/05 10:14:06;;;;;;;0.90;0.80;;;8.40;99.90;;;;;;4861309;29;20184;-61
2024/03/05 10:16:34;;;;;;;0.30;0.30;;;8.40;99.90;;;;;;4861007;29;20204;-60
2024/03/05 10:19:19;;;;;;;0.30;0.30;;;8.40;99.90;;;;;;4861405;29;20180;-61
2024/03/05 10:21:49;;;;;;;1.15;0.60;;;8.40;99.90;;;;;;4861095;29;20245;-62
2024/03/05 10:24:26;;;;;;;0.30;0.30;;;8.50;99.90;;;;;;4861182;29;20184;-62
2024/03/05 10:26:52;;;;;;;0.40;0.40;;;8.50;99.90;;;;;;4861306;29;20278;-61
2024/03/05 10:29:18;;;;;;;0.33;0.33;;;8.50;99.90;;;;;;4861222;29;20208;-62
2024/03/05 10:31:45;;;;;;;0.40;0.40;;;8.50;99.90;;;;;;4861111;29;20420;-61
2024/03/05 10:34:14;;;;;;;0.40;0.40;;;8.50;99.90;;;;;;4860896;29;20276;-60
2024/03/05 10:36:42;;;;;;;0.30;0.30;;;8.50;99.90;;;;;;4860550;29;20204;-61
2024/03/05 10:39:11;;;;;;;0.30;0.30;;;8.50;99.90;;;;;;4860908;29;20179;-59
2024/03/05 10:41:40;;;;;;;0.30;0.30;;;8.60;99.90;;;;;;4861027;29;20567;-60
2024/03/05 10:44:10;;;;;;;0.30;0.30;;;8.60;99.90;;;;;;4860977;29;20543;-61
2024/03/05 10:46:37;;;;;;;0.30;0.30;;;8.70;99.90;;;;;;4860848;29;20285;-59
2024/03/05 10:49:05;;;;;;;0.30;0.30;;;8.80;99.90;;;;;;4861009;29;20172;-61
2024/03/05 10:51:38;;;;;;;0.30;0.30;;;8.80;99.90;;;;;;4860747;29;20195;-60
2024/03/05 10:54:07;;;;;;;0.30;0.30;;;8.80;99.90;;;;;;4861101;29;20591;-61
2024/03/05 10:56:36;;;;;;;0.40;0.40;;;8.80;99.90;;;;;;4860614;29;20196;-58
2024/03/05 11:01:43;;;;;;;0.30;0.30;;;8.80;99.90;;;;;;4860994;29;20194;-60
2024/03/05 11:04:22;;;;;;;1.13;1.02;;;8.80;99.90;;;;;;4844250;29;20174;-62
2024/03/05 11:06:52;;;;;;;0.25;0.20;;;8.80;99.90;;;;;;4842288;29;20579;-60
2024/03/05 11:09:22;;;;;;;0.63;0.63;;;8.80;99.90;;;;;;4826471;29;20543;-60
2024/03/05 11:12:00;;;;;;;0.38;0.38;;;8.80;99.90;;;;;;4842308;29;20242;-61
2024/03/05 11:14:27;;;;;;;0.40;0.40;;;8.80;99.90;;;;;;4847267;29;20187;-62
2024/03/05 11:16:59;;;;;;;0.70;0.70;;;8.80;99.90;;;;;;4860604;29;20238;-61
2024/03/05 11:19:28;;;;;;;0.68;0.68;;;8.90;99.90;;;;;;4861812;29;20177;-60
2024/03/05 11:21:55;;;;;;;0.50;0.50;;;8.90;99.90;;;;;;4866156;29;20703;-60
2024/03/05 11:24:21;;;;;;;0.30;0.30;;;9.00;99.90;;;;;;4867980;29;20243;-59
2024/03/05 11:26:47;;;;;;;0.30;0.30;;;9.00;99.90;;;;;;4867270;29;20202;-60
2024/03/05 11:29:16;;;;;;;0.30;0.30;;;9.00;99.90;;;;;;4870430;29;20426;-60
2024/03/05 11:31:46;;;;;;;0.30;0.30;;;9.00;99.90;;;;;;4870008;29;20185;-59
2024/03/05 11:34:13;;;;;;;0.70;0.70;;;9.10;99.90;;;;;;4872958;29;20181;-61
2024/03/05 11:36:39;;;;;;;0.30;0.30;;;9.10;99.90;;;;;;4869043;29;20676;-58
2024/03/05 11:39:17;;;;;;;0.50;0.50;;;9.10;99.90;;;;;;4865244;29;20189;-61
2024/03/05 11:41:44;;;;;;;0.30;0.30;;;9.10;99.90;;;;;;4865029;29;20208;-62
2024/03/05 11:44:41;;;;;;;0.30;0.30;;;9.20;99.90;;;;;;4864128;29;20657;-60
2024/03/05 11:47:07;;;;;;;1.00;1.00;;;9.20;99.90;;;;;;4839798;29;20232;-60
2024/03/05 11:49:36;;;;;;;0.38;0.38;;;9.10;99.90;;;;;;4868595;29;20177;-59
2024/03/05 11:52:06;;;;;;;0.32;0.32;;;9.20;99.90;;;;;;4871706;29;20181;-59
2024/03/05 11:54:32;;;;;;;0.60;0.60;;;9.20;99.90;;;;;;4871585;29;20218;-59
2024/03/05 11:56:59;;;;;;;0.30;0.30;;;9.20;99.90;;;;;;4871706;29;20220;-59
2024/03/05 11:59:39;;;;;;;0.30;0.30;;;9.30;99.90;;;;;;4864649;29;20636;-59
2024/03/05 12:02:12;;;;;;;0.30;0.20;;;9.30;99.90;;;;;;4868550;29;20249;-59
2024/03/05 12:04:42;;;;;;;0.30;0.30;;;9.30;99.90;;;;;;4869372;29;20241;-59
2024/03/05 12:07:12;;;;;;;0.40;0.40;;;9.30;99.90;;;;;;4864646;29;20216;-58
2024/03/05 12:09:39;;;;;;;0.35;0.35;;;9.30;99.90;;;;;;4864023;29;20494;-58
2024/03/05 12:12:11;;;;;;;0.30;0.30;;;9.40;99.90;;;;;;4863577;29;20665;-59
2024/03/05 12:14:49;;;;;;;0.30;0.30;;;9.40;99.90;;;;;;4863392;29;20223;-58
2024/03/05 12:17:18;;;;;;;0.40;0.40;;;9.40;99.90;;;;;;4863481;29;20216;-61
2024/03/05 12:19:44;;;;;;;1.73;1.63;;;9.30;99.90;;;;;;4846997;29;20555;-58
2024/03/05 12:22:13;;;;;;;0.40;0.40;;;9.30;99.90;;;;;;4863260;29;20418;-60
2024/03/05 12:24:38;;;;;;;0.40;0.40;;;9.30;99.90;;;;;;4863184;29;20180;-60
2024/03/05 12:27:05;;;;;;;0.30;0.30;;;9.30;99.90;;;;;;4863248;29;20265;-59
2024/03/05 12:29:38;;;;;;;0.30;0.30;;;9.40;99.90;;;;;;4862951;29;20196;-59
2024/03/05 12:32:05;;;;;;;0.30;0.30;;;9.40;99.90;;;;;;4863450;29;20174;-58
2024/03/05 12:34:32;;;;;;;0.30;0.30;;;9.40;99.90;;;;;;4863081;29;20529;-59
2024/03/05 12:36:58;;;;;;;0.30;0.30;;;9.50;99.90;;;;;;4862752;29;20210;-59
2024/03/05 12:39:23;;;;;;;0.40;0.40;;;9.50;99.90;;;;;;4861850;29;20456;-61
2024/03/05 12:42:11;;;;;;;0.33;0.33;;;9.50;99.90;;;;;;4863365;29;20181;-59
2024/03/05 12:44:36;;;;;;;0.30;0.30;;;9.60;99.90;;;;;;4862808;29;20180;-60
2024/03/05 12:47:05;;;;;;;0.47;0.47;;;9.70;99.90;;;;;;4862716;29;20206;-58
2024/03/05 12:49:31;;;;;;;0.33;0.33;;;9.80;99.90;;;;;;4863138;29;20419;-60
2024/03/05 12:52:06;;;;;;;0.30;0.30;;;9.90;99.90;;;;;;4862542;29;20430;-60
2024/03/05 12:54:32;;;;;;;0.30;0.30;;;10.10;99.90;;;;;;4862530;29;20393;-60
2024/03/05 12:56:58;;;;;;;0.30;0.30;;;10.10;99.90;;;;;;4846004;29;20471;-57
2024/03/05 12:59:24;;;;;;;0.30;0.30;;;10.20;99.90;;;;;;4862868;29;20752;-58
2024/03/05 13:01:50;;;;;;;0.30;0.30;;;10.40;99.90;;;;;;4862919;29;20194;-58
2024/03/05 13:04:16;;;;;;;0.40;0.40;;;10.50;99.90;;;;;;4862495;29;20791;-63
2024/03/05 13:06:42;;;;;;;0.77;0.77;;;10.60;99.90;;;;;;4862151;29;20852;-59
2024/03/05 13:09:07;;;;;;;0.57;0.47;;;10.70;99.90;;;;;;4862566;29;20426;-60
2024/03/05 13:11:33;;;;;;;0.40;0.40;;;10.80;99.90;;;;;;4862538;29;20178;-59
2024/03/05 13:14:11;;;;;;;0.30;0.20;;;10.90;99.90;;;;;;4862592;29;20650;-61
2024/03/05 13:16:37;;;;;;;0.30;0.30;;;11.00;99.90;;;;;;4861986;29;20290;-60
2024/03/05 13:19:02;;;;;;;0.40;0.40;;;11.20;99.90;;;;;;4862276;29;20865;-61
2024/03/05 13:21:28;;;;;;;0.30;0.23;;;11.30;99.90;;;;;;4862733;29;20187;-59
2024/03/05 13:23:54;;;;;;;0.40;0.40;;;11.40;99.90;;;;;;4862628;29;20544;-60
2024/03/05 13:26:19;;;;;;;0.30;0.30;;;11.50;99.90;;;;;;4862173;29;20203;-60
2024/03/05 13:28:47;;;;;;;1.47;0.43;;;11.60;99.90;;;;;;4862455;29;20635;-57
2024/03/05 13:31:13;;;;;;;0.30;0.20;;;11.70;99.90;;;;;;4861748;29;20271;-60
2024/03/05 13:33:38;;;;;;;0.30;0.30;;;11.80;99.90;;;;;;4861751;29;20929;-60
2024/03/05 13:36:05;;;;;;;0.30;0.30;;;11.90;99.90;;;;;;4861345;29;20733;-60
2024/03/05 13:38:34;;;;;;;0.30;0.30;;;11.90;99.90;;;;;;4861916;29;20218;-60
2024/03/05 13:41:00;;;;;;;0.30;0.20;;;12.00;99.90;;;;;;4862102;29;20418;-60
2024/03/05 13:43:26;;;;;;;0.30;0.20;;;12.00;99.90;;;;;;4861846;29;20482;-60
2024/03/05 13:45:52;;;;;;;0.30;0.30;;;12.00;99.90;;;;;;4861689;29;20548;-60
2024/03/05 13:48:18;;;;;;;0.30;0.30;;;11.90;99.90;;;;;;4862098;29;20413;-59
2024/03/05 13:50:52;;;;;;;0.40;0.40;;;11.80;99.90;;;;;;4861901;29;20561;-60
2024/03/05 13:53:21;;;;;;;0.30;0.30;;;11.70;99.90;;;;;;4862001;29;20399;-61
2024/03/05 13:55:50;;;;;;;0.30;0.30;;;11.60;99.90;;;;;;4861717;29;20799;-60
2024/03/05 13:58:16;;;;;;;0.30;0.30;;;11.50;99.90;;;;;;4859961;29;20442;-60
2024/03/05 14:00:43;;;;;;;0.30;0.20;;;11.40;99.90;;;;;;4859377;29;20421;-61
2024/03/05 14:03:13;;;;;;;0.30;0.30;;;11.40;99.90;;;;;;4859804;29;20240;-60
2024/03/05 14:05:39;;;;;;;0.30;0.30;;;11.50;99.90;;;;;;4859670;29;20437;-60
2024/03/05 14:08:06;;;;;;;0.30;0.30;;;11.60;99.90;;;;;;4859965;29;20478;-60
2024/03/05 14:10:32;;;;;;;0.40;0.40;;;11.60;99.90;;;;;;4859822;29;20413;-59
2024/03/05 14:12:58;;;;;;;0.30;0.30;;;11.50;99.90;;;;;;4860732;29;20417;-59
2024/03/05 14:15:23;;;;;;;0.30;0.30;;;11.50;99.90;;;;;;4860916;29;20491;-60
2024/03/05 14:17:50;;;;;;;0.30;0.20;;;11.50;99.90;;;;;;4861231;29;20454;-61
2024/03/05 14:20:19;;;;;;;0.30;0.20;;;11.40;99.90;;;;;;4861591;29;20567;-61
2024/03/05 14:22:46;;;;;;;0.30;0.30;;;11.40;99.90;;;;;;4861482;29;20387;-58
2024/03/05 14:25:12;;;;;;;0.30;0.30;;;11.40;99.90;;;;;;4860947;29;20515;-60
2024/03/05 14:27:39;;;;;;;0.30;0.30;;;11.30;99.90;;;;;;4861147;29;20446;-61
2024/03/05 14:30:07;;;;;;;0.30;0.23;;;11.40;99.90;;;;;;4861374;29;20438;-61
2024/03/05 14:32:33;;;;;;;0.30;0.30;;;11.30;99.90;;;;;;4844625;29;20438;-61
2024/03/05 14:34:59;;;;;;;0.40;0.40;;;11.40;99.90;;;;;;4860991;29;20428;-58
2024/03/05 14:37:25;;;;;;;0.30;0.30;;;11.20;99.90;;;;;;4861708;29;20471;-60
2024/03/05 14:39:51;;;;;;;0.30;0.30;;;11.20;99.90;;;;;;4861848;29;20183;-62
2024/03/05 14:42:17;;;;;;;0.30;0.30;;;11.10;99.90;;;;;;4861497;29;20187;-61
2024/03/05 14:44:43;;;;;;;0.30;0.30;;;10.90;99.90;;;;;;4861070;29;20411;-60
2024/03/05 14:47:08;;;;;;;0.30;0.20;;;10.90;99.90;;;;;;4844757;29;20523;-61
2024/03/05 14:49:34;;;;;;;0.30;0.20;;;10.80;99.90;;;;;;4861148;29;20187;-60
2024/03/05 14:51:59;;;;;;;0.30;0.30;;;10.70;99.90;;;;;;4861347;29;20189;-61
2024/03/05 14:54:25;;;;;;;0.37;0.37;;;10.60;99.90;;;;;;4861257;29;20601;-60
2024/03/05 14:56:51;;;;;;;0.30;0.30;;;10.60;99.90;;;;;;4861408;29;20210;-63
2024/03/05 14:59:16;;;;;;;0.40;0.40;;;10.60;99.90;;;;;;4861124;29;20263;-61
2024/03/05 15:01:42;;;;;;;0.30;0.30;;;10.60;99.90;;;;;;4860743;29;20550;-61
2024/03/05 15:04:07;;;;;;;0.40;0.40;;;10.60;99.90;;;;;;4861781;29;20179;-63
2024/03/05 15:06:33;;;;;;;2.47;1.33;;;10.60;99.90;;;;;;4860912;29;20206;-61
2024/03/05 15:08:59;;;;;;;0.30;0.30;;;10.60;99.90;;;;;;4861713;29;20186;-61
2024/03/05 15:11:24;;;;;;;0.30;0.30;;;10.70;99.90;;;;;;4861753;29;20542;-62
2024/03/05 15:13:50;;;;;;;0.30;0.30;;;10.70;99.90;;;;;;4861227;29;20178;-61
2024/03/05 15:16:16;;;;;;;0.30;0.30;;;10.70;99.90;;;;;;4860721;29;20284;-61
2024/03/05 15:18:41;;;;;;;0.33;0.33;;;10.70;99.90;;;;;;4860706;29;20482;-62
2024/03/05 15:21:16;;;;;;;0.30;0.30;;;10.60;99.90;;;;;;4861549;29;20190;-61
2024/03/05 15:23:42;;;;;;;0.30;0.30;;;10.60;99.90;;;;;;4861312;29;20258;-60
2024/03/05 15:26:10;;;;;;;0.40;0.40;;;10.50;99.90;;;;;;4860930;29;20450;-60
2024/03/05 15:28:36;;;;;;;0.67;0.67;;;10.50;99.90;;;;;;4861658;29;20439;-63
2024/03/05 15:31:11;;;;;;;0.40;0.40;;;10.40;99.90;;;;;;4842862;29;20462;-62
2024/03/05 15:33:40;;;;;;;0.30;0.30;;;10.40;99.90;;;;;;4842821;29;20442;-59
2024/03/05 15:36:06;;;;;;;0.30;0.30;;;10.30;99.90;;;;;;4842572;29;20443;-61
2024/03/05 15:38:33;;;;;;;0.30;0.30;;;10.20;99.90;;;;;;4842760;29;20548;-60
2024/03/05 15:41:05;;;;;;;0.73;0.73;;;10.20;99.90;;;;;;4842625;29;20824;-61
2024/03/05 15:43:33;;;;;;;0.30;0.30;;;10.20;99.90;;;;;;4843991;29;20421;-60
2024/03/05 15:45:59;;;;;;;0.30;0.30;;;10.10;99.90;;;;;;4860662;29;20201;-61
2024/03/05 15:48:25;;;;;;;0.30;0.30;;;10.00;99.90;;;;;;4844559;29;20190;-61
2024/03/05 15:50:52;;;;;;;0.40;0.40;;;10.00;99.90;;;;;;4859247;29;20225;-61
2024/03/05 15:53:20;;;;;;;0.30;0.30;;;10.00;99.90;;;;;;4860633;29;20624;-60
2024/03/05 15:55:46;;;;;;;0.30;0.30;;;10.00;99.90;;;;;;4860466;29;20577;-61
2024/03/05 15:58:19;;;;;;;0.30;0.30;;;9.90;99.90;;;;;;4860672;29;20208;-58
2024/03/05 16:00:47;;;;;;;0.30;0.30;;;9.90;99.90;;;;;;4844130;29;20426;-58
2024/03/05 16:03:14;;;;;;;0.30;0.22;;;10.00;99.90;;;;;;4860723;29;20660;-60
2024/03/05 16:05:44;;;;;;;0.30;0.30;;;9.90;99.90;;;;;;4859987;29;20342;-61
2024/03/05 16:08:11;;;;;;;0.30;0.20;;;9.90;99.90;;;;;;4861168;29;20967;-61
2024/03/05 16:10:39;;;;;;;0.30;0.30;;;9.90;99.90;;;;;;4860498;29;20269;-60
2024/03/05 16:13:05;;;;;;;0.30;0.30;;;9.90;99.90;;;;;;4861528;29;20238;-60
2024/03/05 16:15:31;;;;;;;0.30;0.30;;;9.90;99.90;;;;;;4863607;29;20940;-58
2024/03/05 16:18:00;;;;;;;0.30;0.30;;;9.80;99.90;;;;;;4863684;29;20466;-61
2024/03/05 16:20:27;;;;;;;0.30;0.30;;;9.80;99.90;;;;;;4863607;29;20203;-59
2024/03/05 16:22:54;;;;;;;0.30;0.30;;;9.80;99.90;;;;;;4863691;29;20311;-62
2024/03/05 16:25:27;;;;;;;0.40;0.40;;;9.80;99.90;;;;;;4863568;29;20180;-60
2024/03/05 16:27:57;;;;;;;0.30;0.30;;;9.80;99.90;;;;;;4846722;29;20185;-59
2024/03/05 16:30:24;;;;;;;0.30;0.28;;;9.70;99.90;;;;;;4863941;29;20231;-60
2024/03/05 16:32:56;;;;;;;0.30;0.30;;;9.70;99.90;;;;;;4864222;29;20173;-61
2024/03/05 16:35:27;;;;;;;0.30;0.30;;;9.60;99.90;;;;;;4864199;29;20282;-62
2024/03/05 16:37:54;;;;;;;0.30;0.30;;;9.60;99.90;;;;;;4863988;29;20240;-60
2024/03/05 16:40:21;;;;;;;0.30;0.30;;;9.60;99.90;;;;;;4865900;29;20181;-61
2024/03/05 16:42:50;;;;;;;0.30;0.30;;;9.50;99.90;;;;;;4871283;29;20549;-62
2024/03/05 16:45:22;;;;;;;0.30;0.30;;;9.50;99.90;;;;;;4852594;29;20330;-59
2024/03/05 16:47:49;;;;;;;0.32;0.32;;;9.50;99.90;;;;;;4870528;29;20169;-60
2024/03/05 16:50:16;;;;;;;0.30;0.30;;;9.40;99.90;;;;;;4870609;29;20694;-60
2024/03/05 16:52:46;;;;;;;0.30;0.30;;;9.40;99.90;;;;;;4873165;29;20191;-58
2024/03/05 16:55:13;;;;;;;0.30;0.30;;;9.30;99.90;;;;;;4848090;29;20647;-60
2024/03/05 16:57:40;;;;;;;0.30;0.30;;;9.40;99.90;;;;;;4867599;29;20199;-62
2024/03/05 17:00:30;;;;;;;0.35;0.35;;;9.30;99.90;;;;;;4867555;29;20206;-59
2024/03/05 17:03:00;;;;;;;0.40;0.40;;;9.30;99.90;;;;;;4850320;29;20187;-58
2024/03/05 17:05:27;;;;;;;0.30;0.30;;;9.30;99.90;;;;;;4863553;29;20215;-60
2024/03/05 17:07:54;;;;;;;0.30;0.30;;;9.20;99.90;;;;;;4864325;29;20252;-59
2024/03/05 17:10:26;;;;;;;0.30;0.30;;;9.20;99.90;;;;;;4864029;29;20204;-58
2024/03/05 17:12:58;;;;;;;0.30;0.30;;;9.10;99.90;;;;;;4863739;29;20577;-60
2024/03/05 17:15:29;;;;;;;0.38;0.38;;;9.10;99.90;;;;;;4862780;29;20180;-59
2024/03/05 17:17:55;;;;;;;0.30;0.30;;;9.10;99.90;;;;;;4862845;29;20268;-61
2024/03/05 17:20:21;;;;;;;0.33;0.33;;;9.00;99.90;;;;;;4845747;29;20180;-61
2024/03/05 17:22:49;;;;;;;0.30;0.30;;;9.00;99.90;;;;;;4862761;29;20219;-59
2024/03/05 17:25:15;;;;;;;0.30;0.30;;;8.90;99.90;;;;;;4861511;29;20176;-61
2024/03/05 17:27:44;;;;;;;0.40;0.40;;;8.90;99.90;;;;;;4862777;29;20180;-60
2024/03/05 17:30:10;;;;;;;0.30;0.30;;;8.80;99.90;;;;;;4862342;29;20208;-60
2024/03/05 17:32:40;;;;;;;0.40;0.40;;;8.80;99.90;;;;;;4862855;29;20176;-60
2024/03/05 17:35:06;;;;;;;0.30;0.30;;;8.80;99.90;;;;;;4861900;29;20188;-60
2024/03/05 17:37:32;;;;;;;0.30;0.20;;;8.80;99.90;;;;;;4861701;29;20280;-61
2024/03/05 17:39:58;;;;;;;0.32;0.32;;;8.80;99.90;;;;;;4863061;29;20834;-61
2024/03/05 17:42:24;;;;;;;0.30;0.30;;;8.80;99.90;;;;;;4864900;29;20189;-62
2024/03/05 17:44:50;;;;;;;2.17;2.00;;;8.80;99.90;;;;;;4862371;29;20270;-62
2024/03/05 17:47:16;;;;;;;0.30;0.30;;;8.70;99.90;;;;;;4861835;29;20200;-60
2024/03/05 17:49:42;;;;;;;0.30;0.30;;;8.70;99.90;;;;;;4862580;29;20176;-61
2024/03/05 17:52:11;;;;;;;0.30;0.30;;;8.70;99.90;;;;;;4862280;29;20267;-60
2024/03/05 17:54:37;;;;;;;0.38;0.38;;;8.70;99.90;;;;;;4861816;29;20184;-61
2024/03/05 17:57:03;;;;;;;0.32;0.32;;;8.70;99.90;;;;;;4862202;29;20208;-61
2024/03/05 17:59:29;;;;;;;0.30;0.30;;;8.70;99.90;;;;;;4862457;29;20517;-61
2024/03/05 18:01:57;;;;;;;0.30;0.30;;;8.70;99.90;;;;;;4861307;29;20651;-61
2024/03/05 18:04:23;;;;;;;0.30;0.30;;;8.70;99.90;;;;;;4860658;29;20292;-63
2024/03/05 18:06:49;;;;;;;0.40;0.40;;;8.70;99.90;;;;;;4843228;29;20240;-59
2024/03/05 18:09:20;;;;;;;0.40;0.40;;;8.70;99.90;;;;;;4827309;29;20500;-61
2024/03/05 18:11:46;;;;;;;0.40;0.40;;;8.60;99.90;;;;;;4847266;29;20251;-60
2024/03/05 18:14:12;;;;;;;0.32;0.32;;;8.60;99.90;;;;;;4861801;29;20181;-61